createdAt,value
2023-04-27T00:00:41.143Z,3.38
2023-04-27T00:03:08.187Z,3.15
2023-04-27T00:05:39.525Z,3.17
2023-04-27T00:08:07.019Z,3.42
2023-04-27T00:10:33.701Z,3.58
2023-04-27T00:13:01.197Z,3.50
2023-04-27T00:15:28.145Z,3.60
2023-04-27T00:17:55.171Z,3.33
2023-04-27T00:20:21.735Z,3.97
2023-04-27T00:22:48.207Z,3.72
2023-04-27T00:25:14.782Z,3.33
2023-04-27T00:27:41.209Z,3.78
2023-04-27T00:30:09.487Z,3.78
2023-04-27T00:32:36.261Z,3.45
2023-04-27T00:35:02.773Z,3.53
2023-04-27T00:37:29.232Z,3.58
2023-04-27T00:39:55.705Z,3.85
2023-04-27T00:42:24.931Z,3.40
2023-04-27T00:44:51.675Z,3.85
2023-04-27T00:47:18.340Z,3.65
2023-04-27T00:49:45.163Z,3.45
2023-04-27T00:52:11.713Z,3.63
2023-04-27T00:54:38.772Z,3.28
2023-04-27T00:57:05.409Z,3.83
2023-04-27T00:59:31.971Z,3.80
2023-04-27T01:01:59.349Z,3.75
2023-04-27T01:04:26.916Z,4.20
2023-04-27T01:06:53.703Z,4.00
2023-04-27T01:09:21.451Z,4.13
2023-04-27T01:11:49.713Z,4.72
2023-04-27T01:14:17.270Z,4.15
2023-04-27T01:16:44.332Z,4.00
2023-04-27T01:19:11.268Z,4.13
2023-04-27T01:21:37.975Z,4.88
2023-04-27T01:24:07.312Z,3.88
2023-04-27T01:26:33.946Z,4.10
2023-04-27T01:29:00.656Z,4.10
2023-04-27T01:31:27.345Z,4.65
2023-04-27T01:33:53.863Z,3.55
2023-04-27T01:36:20.346Z,3.47
2023-04-27T01:38:48.568Z,3.85
2023-04-27T01:41:15.046Z,4.10
2023-04-27T01:43:43.607Z,3.58
2023-04-27T01:46:12.672Z,3.55
2023-04-27T01:48:40.116Z,3.20
2023-04-27T01:51:06.590Z,3.67
2023-04-27T01:53:33.185Z,3.97
2023-04-27T01:56:00.363Z,3.78
2023-04-27T01:58:27.723Z,4.18
2023-04-27T02:00:54.228Z,4.53
2023-04-27T02:03:20.882Z,4.72
2023-04-27T02:05:50.421Z,3.90
2023-04-27T02:08:16.923Z,4.43
2023-04-27T02:10:44.473Z,3.38
2023-04-27T02:13:10.955Z,3.83
2023-04-27T02:15:37.479Z,3.10
2023-04-27T02:18:04.582Z,3.78
2023-04-27T02:20:31.876Z,3.60
2023-04-27T02:23:01.042Z,3.95
2023-04-27T02:25:28.152Z,3.28
2023-04-27T02:27:55.223Z,3.47
2023-04-27T02:30:22.353Z,3.42
2023-04-27T02:32:49.680Z,3.10
2023-04-27T02:35:16.285Z,3.58
2023-04-27T02:37:42.771Z,3.25
2023-04-27T02:40:09.874Z,3.38
2023-04-27T02:42:38.740Z,3.88
2023-04-27T02:45:08.511Z,4.03
2023-04-27T02:47:36.311Z,3.70
2023-04-27T02:50:03.110Z,4.00
2023-04-27T02:52:33.665Z,4.35
2023-04-27T02:55:00.315Z,4.25
2023-04-27T02:57:28.071Z,4.35
2023-04-27T02:59:54.575Z,4.13
2023-04-27T03:02:21.371Z,4.15
2023-04-27T03:04:51.620Z,4.93
2023-04-27T03:07:18.198Z,4.30
2023-04-27T03:09:44.626Z,4.22
2023-04-27T03:12:11.116Z,4.22
2023-04-27T03:14:37.568Z,4.10
2023-04-27T03:17:04.109Z,4.07
2023-04-27T03:19:30.651Z,3.83
2023-04-27T03:21:57.402Z,4.63
2023-04-27T03:24:25.409Z,4.05
2023-04-27T03:26:52.414Z,3.80
2023-04-27T03:29:20.698Z,4.18
2023-04-27T03:31:47.204Z,3.97
2023-04-27T03:34:13.941Z,3.83
2023-04-27T03:36:40.361Z,3.92
2023-04-27T03:39:09.821Z,4.55
2023-04-27T03:41:36.280Z,4.20
2023-04-27T03:44:03.129Z,4.18
2023-04-27T03:46:29.672Z,4.30
2023-04-27T03:48:56.385Z,4.15
2023-04-27T03:51:23.063Z,4.38
2023-04-27T03:53:49.555Z,4.72
2023-04-27T03:56:16.290Z,4.70
2023-04-27T03:58:42.791Z,4.00
2023-04-27T04:01:16.737Z,4.45
2023-04-27T04:03:43.618Z,5.10
2023-04-27T04:06:11.348Z,4.93
2023-04-27T04:08:38.745Z,5.70
2023-04-27T04:11:05.358Z,5.18
2023-04-27T04:13:35.867Z,4.85
2023-04-27T04:16:04.610Z,5.10
2023-04-27T04:18:31.445Z,4.60
2023-04-27T04:20:58.053Z,4.60
2023-04-27T04:23:24.599Z,4.35
2023-04-27T04:25:51.510Z,4.82
2023-04-27T04:28:18.313Z,4.97
2023-04-27T04:30:45.633Z,4.95
2023-04-27T04:33:12.197Z,4.72
2023-04-27T04:35:39.409Z,5.43
2023-04-27T04:38:05.960Z,5.53
2023-04-27T04:40:32.563Z,5.60
2023-04-27T04:42:59.075Z,4.90
2023-04-27T04:45:25.980Z,5.18
2023-04-27T04:47:54.294Z,5.50
2023-04-27T04:50:20.910Z,5.00
2023-04-27T04:52:47.369Z,4.95
2023-04-27T04:55:15.076Z,4.18
2023-04-27T04:57:41.577Z,5.13
2023-04-27T05:00:12.998Z,5.13
2023-04-27T05:02:43.080Z,5.18
2023-04-27T05:05:09.858Z,5.15
2023-04-27T05:07:37.437Z,5.00
2023-04-27T05:10:04.191Z,7.65
2023-04-27T05:12:30.952Z,5.43
2023-04-27T05:14:57.398Z,5.97
2023-04-27T05:17:24.080Z,6.50
2023-04-27T05:19:50.540Z,6.20
2023-04-27T05:22:17.052Z,5.32
2023-04-27T05:24:43.528Z,5.95
2023-04-27T05:27:09.949Z,5.40
2023-04-27T05:29:36.424Z,6.07
2023-04-27T05:32:03.216Z,6.00
2023-04-27T05:34:29.677Z,5.85
2023-04-27T05:36:56.222Z,5.95
2023-04-27T05:39:22.688Z,5.90
2023-04-27T05:41:49.239Z,5.88
2023-04-27T05:44:15.710Z,6.30
2023-04-27T05:46:42.168Z,5.82
2023-04-27T05:49:08.614Z,5.88
2023-04-27T05:51:35.376Z,6.35
2023-04-27T05:54:02.116Z,5.85
2023-04-27T05:56:28.749Z,6.05
2023-04-27T05:58:55.281Z,6.72
2023-04-27T06:01:21.733Z,6.03
2023-04-27T06:03:48.389Z,6.70
2023-04-27T06:06:15.139Z,6.18
2023-04-27T06:08:41.588Z,6.47
2023-04-27T06:11:08.060Z,5.97
2023-04-27T06:13:34.582Z,5.72
2023-04-27T06:16:01.755Z,5.47
2023-04-27T06:18:28.439Z,5.80
2023-04-27T06:20:59.991Z,5.75
2023-04-27T06:23:26.450Z,5.70
2023-04-27T06:25:52.931Z,5.93
2023-04-27T06:28:19.409Z,5.93
2023-04-27T06:30:45.857Z,5.47
2023-04-27T06:33:12.313Z,6.25
2023-04-27T06:35:38.766Z,5.45
2023-04-27T06:38:07.540Z,7.10
2023-04-27T06:40:35.538Z,5.90
2023-04-27T06:43:02.028Z,5.70
2023-04-27T06:45:28.543Z,5.75
2023-04-27T06:47:55.302Z,4.93
2023-04-27T06:50:21.833Z,5.03
2023-04-27T06:52:48.293Z,5.80
2023-04-27T06:55:14.739Z,5.20
2023-04-27T06:57:41.295Z,5.10
2023-04-27T07:00:08.873Z,5.40
2023-04-27T07:02:35.437Z,4.72
2023-04-27T07:05:02.114Z,4.55
2023-04-27T07:07:28.821Z,4.28
2023-04-27T07:09:55.548Z,4.30
2023-04-27T07:12:22.029Z,4.40
2023-04-27T07:14:50.678Z,4.60
2023-04-27T07:17:17.184Z,4.05
2023-04-27T07:19:43.635Z,3.90
2023-04-27T07:22:10.133Z,3.97
2023-04-27T07:24:36.628Z,3.63
2023-04-27T07:27:03.996Z,3.47
2023-04-27T07:29:31.291Z,3.45
2023-04-27T07:31:58.190Z,3.22
2023-04-27T07:34:24.921Z,2.92
2023-04-27T07:36:54.471Z,3.22
2023-04-27T07:39:21.316Z,2.97
2023-04-27T07:41:48.194Z,3.38
2023-04-27T07:44:15.064Z,3.08
2023-04-27T07:46:41.495Z,3.03
2023-04-27T07:49:07.977Z,3.30
2023-04-27T07:51:34.625Z,3.33
2023-04-27T07:54:03.319Z,3.17
2023-04-27T07:56:29.725Z,3.00
2023-04-27T07:58:56.660Z,2.95
2023-04-27T08:01:23.101Z,3.10
2023-04-27T08:03:49.766Z,2.83
2023-04-27T08:06:18.983Z,3.10
2023-04-27T08:08:45.656Z,3.20
2023-04-27T08:11:12.446Z,3.30
2023-04-27T08:13:38.995Z,3.22
2023-04-27T08:16:05.979Z,3.50
2023-04-27T08:18:32.677Z,3.08
2023-04-27T08:20:59.245Z,3.28
2023-04-27T08:23:29.553Z,3.15
2023-04-27T08:25:56.412Z,3.05
2023-04-27T08:28:23.471Z,2.75
2023-04-27T08:30:50.105Z,3.10
2023-04-27T08:33:16.676Z,2.92
2023-04-27T08:35:43.150Z,2.92
2023-04-27T08:38:09.667Z,3.00
2023-04-27T08:40:36.165Z,2.92
2023-04-27T08:43:02.586Z,2.90
2023-04-27T08:45:29.133Z,2.60
2023-04-27T08:47:55.739Z,2.70
2023-04-27T08:50:24.126Z,2.75
2023-04-27T08:52:50.964Z,3.13
2023-04-27T08:55:17.576Z,2.60
2023-04-27T08:57:54.857Z,2.58
2023-04-27T09:00:21.583Z,2.63
2023-04-27T09:02:48.973Z,3.15
2023-04-27T09:05:20.022Z,3.17
2023-04-27T09:08:01.323Z,2.80
2023-04-27T09:10:29.732Z,2.25
2023-04-27T09:12:58.116Z,2.60
2023-04-27T09:15:25.041Z,2.33
2023-04-27T09:17:56.565Z,2.83
2023-04-27T09:20:23.456Z,3.17
2023-04-27T09:22:53.564Z,3.25
2023-04-27T09:25:28.701Z,2.78
2023-04-27T09:27:56.440Z,3.35
2023-04-27T09:30:22.999Z,2.85
2023-04-27T09:32:57.075Z,3.10
2023-04-27T09:35:32.103Z,3.25
2023-04-27T09:37:59.774Z,3.45
2023-04-27T09:40:29.701Z,3.05
2023-04-27T09:42:58.277Z,3.53
2023-04-27T09:45:25.849Z,3.50
2023-04-27T09:47:53.135Z,3.63
2023-04-27T09:50:20.289Z,3.40
2023-04-27T09:52:47.084Z,3.50
2023-04-27T09:55:21.029Z,3.65
2023-04-27T09:57:59.060Z,3.53
2023-04-27T10:00:37.714Z,3.60
2023-04-27T10:03:15.570Z,3.35
2023-04-27T10:05:48.470Z,3.50
2023-04-27T10:08:15.472Z,3.50
2023-04-27T10:10:43.856Z,3.65
2023-04-27T10:13:21.641Z,3.03
2023-04-27T10:15:48.276Z,3.45
2023-04-27T10:18:26.238Z,3.38
2023-04-27T10:20:52.960Z,3.42
2023-04-27T10:23:26.884Z,3.08
2023-04-27T10:25:54.261Z,3.50
2023-04-27T10:28:21.361Z,3.30
2023-04-27T10:30:49.126Z,3.60
2023-04-27T10:33:17.672Z,4.00
2023-04-27T10:35:56.193Z,3.65
2023-04-27T10:38:28.864Z,3.70
2023-04-27T10:41:04.944Z,3.40
2023-04-27T10:43:34.214Z,3.60
2023-04-27T10:46:11.756Z,3.60
2023-04-27T10:48:43.379Z,3.45
2023-04-27T10:53:37.572Z,3.90
2023-04-27T10:56:06.675Z,4.25
2023-04-27T10:58:47.400Z,3.63
2023-04-27T11:01:25.733Z,3.72
2023-04-27T11:04:01.062Z,3.65
2023-04-27T11:06:28.848Z,4.05
2023-04-27T11:08:55.584Z,4.03
2023-04-27T11:11:22.582Z,3.60
2023-04-27T11:13:49.997Z,3.65
2023-04-27T11:16:16.788Z,3.78
2023-04-27T11:18:43.279Z,3.90
2023-04-27T11:21:10.533Z,3.92
2023-04-27T11:23:38.649Z,4.38
2023-04-27T11:26:26.234Z,4.15
2023-04-27T11:29:01.553Z,4.20
2023-04-27T11:31:38.242Z,4.00
2023-04-27T11:34:04.820Z,3.83
2023-04-27T11:36:31.695Z,4.00
2023-04-27T11:39:00.004Z,3.88
2023-04-27T11:41:37.213Z,5.25
2023-04-27T11:44:07.851Z,4.20
2023-04-27T11:46:36.596Z,4.30
2023-04-27T11:49:08.611Z,4.10
2023-04-27T11:51:36.105Z,4.13
2023-04-27T11:54:04.460Z,4.40
2023-04-27T11:56:41.878Z,4.13
2023-04-27T11:59:23.115Z,4.28
2023-04-27T12:01:51.425Z,4.45
2023-04-27T12:04:18.176Z,4.18
2023-04-27T12:06:45.103Z,4.20
2023-04-27T12:09:11.666Z,4.30
2023-04-27T12:11:38.571Z,4.47
2023-04-27T12:14:05.076Z,4.68
2023-04-27T12:16:31.834Z,4.80
2023-04-27T12:18:58.408Z,4.95
2023-04-27T12:21:25.159Z,4.22
2023-04-27T12:23:51.606Z,4.53
2023-04-27T12:26:18.391Z,4.53
2023-04-27T12:28:44.929Z,4.95
2023-04-27T12:31:16.266Z,5.15
2023-04-27T12:33:42.823Z,4.70
2023-04-27T12:36:09.363Z,5.20
2023-04-27T12:38:36.202Z,4.68
2023-04-27T12:41:02.672Z,4.95
2023-04-27T12:43:29.183Z,4.60
2023-04-27T12:45:56.259Z,4.78
2023-04-27T12:48:23.437Z,4.80
2023-04-27T12:50:50.212Z,4.22
2023-04-27T12:53:16.858Z,4.57
2023-04-27T12:55:43.359Z,5.70
2023-04-27T12:58:09.788Z,4.60
2023-04-27T13:00:36.251Z,4.72
2023-04-27T13:03:02.976Z,4.75
2023-04-27T13:05:31.717Z,5.03
2023-04-27T13:07:58.763Z,4.63
2023-04-27T13:10:25.408Z,4.63
2023-04-27T13:12:51.914Z,4.38
2023-04-27T13:15:18.462Z,4.75
2023-04-27T13:17:44.930Z,4.95
2023-04-27T13:20:12.048Z,4.95
2023-04-27T13:22:40.618Z,4.78
2023-04-27T13:25:08.381Z,4.63
2023-04-27T13:27:35.589Z,4.90
2023-04-27T13:30:02.208Z,4.80
2023-04-27T13:32:28.816Z,4.55
2023-04-27T13:34:55.458Z,4.72
2023-04-27T13:37:22.132Z,5.10
2023-04-27T13:39:48.558Z,5.07
2023-04-27T13:42:15.038Z,5.20
2023-04-27T13:44:41.491Z,5.00
2023-04-27T13:47:08.129Z,5.28
2023-04-27T13:49:34.639Z,5.03
2023-04-27T13:52:03.458Z,5.15
2023-04-27T13:54:29.978Z,4.55
2023-04-27T13:56:57.489Z,4.55
2023-04-27T13:59:24.300Z,5.03
2023-04-27T14:01:50.832Z,5.18
2023-04-27T14:04:17.419Z,4.65
2023-04-27T14:06:44.118Z,4.32
2023-04-27T14:09:10.673Z,4.20
2023-04-27T14:11:48.910Z,4.20
2023-04-27T14:14:22.550Z,4.68
2023-04-27T14:16:50.967Z,4.10
2023-04-27T14:19:18.567Z,4.03
2023-04-27T14:21:45.041Z,4.53
2023-04-27T14:24:11.516Z,4.15
2023-04-27T14:26:37.916Z,4.15
2023-04-27T14:29:04.469Z,3.97
2023-04-27T14:31:31.612Z,3.75
2023-04-27T14:33:58.171Z,3.75
2023-04-27T14:36:24.741Z,4.22
2023-04-27T14:38:51.202Z,3.92
2023-04-27T14:41:17.632Z,3.88
2023-04-27T14:43:46.179Z,3.78
2023-04-27T14:48:46.861Z,3.88
2023-04-27T14:51:13.927Z,3.63
2023-04-27T14:53:40.525Z,4.03
2023-04-27T14:56:07.219Z,3.60
2023-04-27T14:58:33.827Z,3.90
2023-04-27T15:01:01.653Z,3.25
2023-04-27T15:03:28.754Z,3.53
2023-04-27T15:05:55.477Z,3.25
2023-04-27T15:08:22.275Z,3.40
2023-04-27T15:10:48.791Z,3.35
2023-04-27T15:13:15.256Z,2.83
2023-04-27T15:15:41.869Z,2.88
2023-04-27T15:18:08.455Z,3.30
2023-04-27T15:20:34.934Z,3.10
2023-04-27T15:23:01.383Z,2.85
2023-04-27T15:25:27.902Z,3.40
2023-04-27T15:27:54.386Z,3.08
2023-04-27T15:30:20.976Z,3.25
2023-04-27T15:32:47.894Z,2.85
2023-04-27T15:35:14.358Z,3.60
2023-04-27T15:37:40.946Z,2.63
2023-04-27T15:40:08.726Z,2.78
2023-04-27T15:42:35.327Z,2.90
2023-04-27T15:45:02.052Z,2.78
2023-04-27T15:47:28.490Z,2.55
2023-04-27T15:49:57.905Z,2.85
2023-04-27T15:52:26.810Z,2.67
2023-04-27T15:54:53.332Z,2.55
2023-04-27T15:57:19.848Z,2.95
2023-04-27T15:59:46.309Z,2.80
2023-04-27T16:02:13.693Z,2.80
2023-04-27T16:04:40.217Z,2.63
2023-04-27T16:07:07.236Z,3.15
2023-04-27T16:09:34.139Z,2.90
2023-04-27T16:12:01.817Z,3.20
2023-04-27T16:14:28.358Z,3.00
2023-04-27T16:16:56.182Z,3.75
2023-04-27T16:19:23.507Z,3.33
2023-04-27T16:21:50.222Z,4.10
2023-04-27T16:24:16.842Z,3.47
2023-04-27T16:26:43.352Z,3.45
2023-04-27T16:29:09.896Z,3.40
2023-04-27T16:31:36.352Z,4.88
2023-04-27T16:34:03.927Z,3.28
2023-04-27T16:36:32.859Z,3.50
2023-04-27T16:39:00.198Z,3.50
2023-04-27T16:41:26.841Z,3.58
2023-04-27T16:43:53.381Z,3.20
2023-04-27T16:46:19.929Z,3.30
2023-04-27T16:48:46.437Z,3.30
2023-04-27T16:51:12.984Z,3.70
2023-04-27T16:53:39.514Z,3.47
2023-04-27T16:56:06.658Z,3.30
2023-04-27T16:58:36.026Z,3.20
2023-04-27T17:01:02.572Z,3.67
2023-04-27T17:03:29.894Z,3.25
2023-04-27T17:05:56.619Z,3.70
2023-04-27T17:08:25.282Z,3.83
2023-04-27T17:10:53.001Z,3.72
2023-04-27T17:13:19.466Z,3.70
2023-04-27T17:15:46.107Z,4.03
2023-04-27T17:18:12.564Z,5.50
2023-04-27T17:20:40.982Z,6.95
2023-04-27T17:23:08.751Z,6.35
2023-04-27T17:25:35.224Z,4.80
2023-04-27T17:28:01.884Z,4.00
2023-04-27T17:30:28.468Z,4.50
2023-04-27T17:32:54.923Z,4.88
2023-04-27T17:35:21.634Z,4.20
2023-04-27T17:37:48.105Z,4.70
2023-04-27T17:40:16.333Z,4.25
2023-04-27T17:42:42.787Z,4.30
2023-04-27T17:45:09.606Z,4.60
2023-04-27T17:47:36.452Z,4.47
2023-04-27T17:50:03.010Z,4.47
2023-04-27T17:52:29.544Z,4.25
2023-04-27T17:54:56.482Z,3.85
2023-04-27T17:57:23.142Z,3.97
2023-04-27T17:59:51.835Z,4.43
2023-04-27T18:02:18.914Z,4.07
2023-04-27T18:04:45.563Z,4.60
2023-04-27T18:07:12.546Z,4.35
2023-04-27T18:09:38.946Z,4.05
2023-04-27T18:12:10.792Z,4.15
2023-04-27T18:14:38.405Z,4.22
2023-04-27T18:17:05.190Z,4.78
2023-04-27T18:19:31.724Z,4.38
2023-04-27T18:22:03.951Z,4.78
2023-04-27T18:24:30.437Z,4.80
2023-04-27T18:26:57.827Z,4.18
2023-04-27T18:29:24.329Z,4.53
2023-04-27T18:31:51.530Z,4.45
2023-04-27T18:34:18.058Z,4.47
2023-04-27T18:36:50.198Z,5.20
2023-04-27T18:39:18.191Z,4.88
2023-04-27T18:41:44.701Z,4.78
2023-04-27T18:44:11.198Z,4.93
2023-04-27T18:46:38.851Z,5.13
2023-04-27T18:49:05.542Z,4.88
2023-04-27T18:51:32.041Z,4.55
2023-04-27T18:53:58.525Z,4.80
2023-04-27T18:56:24.974Z,5.10
2023-04-27T18:58:51.580Z,5.85
2023-04-27T19:01:23.505Z,5.28
2023-04-27T19:03:50.340Z,5.03
2023-04-27T19:06:18.986Z,4.90
2023-04-27T19:08:47.321Z,5.22
2023-04-27T19:11:14.022Z,5.88
2023-04-27T19:13:42.959Z,5.07
2023-04-27T19:16:10.312Z,5.30
2023-04-27T19:18:36.937Z,5.43
2023-04-27T19:21:04.146Z,5.57
2023-04-27T19:23:30.625Z,5.68
2023-04-27T19:26:02.710Z,5.90
2023-04-27T19:28:36.780Z,5.38
2023-04-27T19:31:03.291Z,6.38
2023-04-27T19:33:29.728Z,6.45
2023-04-27T19:35:58.303Z,6.25
2023-04-27T19:38:25.547Z,6.25
2023-04-27T19:40:52.556Z,6.13
2023-04-27T19:43:19.035Z,6.05
2023-04-27T19:45:45.551Z,5.82
2023-04-27T19:48:12.107Z,6.47
2023-04-27T19:50:41.392Z,6.68
2023-04-27T19:53:07.988Z,6.03
2023-04-27T19:55:34.914Z,5.97
2023-04-27T19:58:01.369Z,5.88
2023-04-27T20:00:27.902Z,5.45
2023-04-27T20:02:54.630Z,5.57
2023-04-27T20:05:21.889Z,6.45
2023-04-27T20:07:49.974Z,6.15
2023-04-27T20:10:16.721Z,6.05
2023-04-27T20:12:55.192Z,5.47
2023-04-27T20:15:24.190Z,5.63
2023-04-27T20:17:50.869Z,6.05
2023-04-27T20:20:18.058Z,5.90
2023-04-27T20:22:45.451Z,5.63
2023-04-27T20:25:14.386Z,5.28
2023-04-27T20:27:41.276Z,5.20
2023-04-27T20:30:08.404Z,4.85
2023-04-27T20:32:34.859Z,5.30
2023-04-27T20:35:02.453Z,5.20
2023-04-27T20:37:29.043Z,4.63
2023-04-27T20:39:55.798Z,5.35
2023-04-27T20:42:22.465Z,5.38
2023-04-27T20:44:48.942Z,5.50
2023-04-27T20:47:15.594Z,5.40
2023-04-27T20:49:42.264Z,5.50
2023-04-27T20:52:08.851Z,5.07
2023-04-27T20:54:36.137Z,5.55
2023-04-27T20:57:02.853Z,5.45
2023-04-27T20:59:29.266Z,5.10
2023-04-27T21:01:56.458Z,4.95
2023-04-27T21:04:22.969Z,5.63
2023-04-27T21:06:49.635Z,5.78
2023-04-27T21:09:16.122Z,4.93
2023-04-27T21:11:42.570Z,5.35
2023-04-27T21:14:09.061Z,5.13
2023-04-27T21:16:35.623Z,5.25
2023-04-27T21:19:02.167Z,3.88
2023-04-27T21:21:28.655Z,5.07
2023-04-27T21:24:19.028Z,5.47
2023-04-27T21:26:42.246Z,5.95
2023-04-27T21:29:08.789Z,5.05
2023-04-27T21:31:35.557Z,5.63
2023-04-27T21:34:03.529Z,5.38
2023-04-27T21:36:30.396Z,5.22
2023-04-27T21:38:59.775Z,5.47
2023-04-27T21:41:26.656Z,5.25
2023-04-27T21:43:53.067Z,5.72
2023-04-27T21:46:19.743Z,5.68
2023-04-27T21:48:46.253Z,5.13
2023-04-27T21:51:12.656Z,5.70
2023-04-27T21:53:39.202Z,5.47
2023-04-27T21:56:06.481Z,5.82
2023-04-27T21:58:32.986Z,5.70
2023-04-27T22:00:59.440Z,5.95
2023-04-27T22:03:26.308Z,6.00
2023-04-27T22:05:52.955Z,6.35
2023-04-27T22:08:19.625Z,6.28
2023-04-27T22:10:47.151Z,5.88
2023-04-27T22:15:43.029Z,6.13
2023-04-27T22:18:09.551Z,5.53
2023-04-27T22:20:36.056Z,6.78
2023-04-27T22:23:02.536Z,5.82
2023-04-27T22:25:29.550Z,6.30
2023-04-27T22:27:56.443Z,6.45
2023-04-27T22:30:23.032Z,5.80
2023-04-27T22:32:50.253Z,6.68
2023-04-27T22:35:25.420Z,6.28
2023-04-27T22:37:54.898Z,5.93
2023-04-27T22:40:21.439Z,6.05
2023-04-27T22:42:47.931Z,6.78
2023-04-27T22:45:14.527Z,6.03
2023-04-27T22:47:41.356Z,5.38
2023-04-27T22:50:10.237Z,5.90
2023-04-27T22:52:37.441Z,6.10
2023-04-27T22:55:04.476Z,6.13
2023-04-27T22:57:31.028Z,5.88
2023-04-27T22:59:57.593Z,5.70
2023-04-27T23:02:24.185Z,6.35
2023-04-27T23:04:50.952Z,6.03
2023-04-27T23:07:18.338Z,5.90
2023-04-27T23:09:45.734Z,5.80
2023-04-27T23:12:12.199Z,6.32
2023-04-27T23:14:39.953Z,5.53
2023-04-27T23:17:07.384Z,5.80
2023-04-27T23:19:34.563Z,5.72
2023-04-27T23:22:01.782Z,6.18
2023-04-27T23:24:29.314Z,6.20
2023-04-27T23:26:55.984Z,5.50
2023-04-27T23:29:22.488Z,5.75
2023-04-27T23:31:49.123Z,5.53
2023-04-27T23:34:16.107Z,6.07
2023-04-27T23:36:43.009Z,5.82
2023-04-27T23:39:09.519Z,5.13
2023-04-27T23:41:36.030Z,5.50
2023-04-27T23:44:02.727Z,5.13
2023-04-27T23:46:29.213Z,5.35
2023-04-27T23:48:55.742Z,5.47
2023-04-27T23:51:22.258Z,5.50
2023-04-27T23:53:48.696Z,5.15
2023-04-27T23:56:19.334Z,5.38
2023-04-27T23:58:46.048Z,5.43
